Capt. Ted — WDD6210 — position and weather

sailwx.info

Track history (hours):
 
Tides and Currents Weather Stations Pressure Air Temp Water Temp Dewpoint Dewpoint Depression Visibility Wind Speed Wind Dir Waves Ship Positions

Capt. Ted

Owner: Salisbury Towing Corporation, Richmond, VA. More information available from US FCC via Universal Licensing System and Coast Guard Vessel Documentation Center.

Last reported at 2017-Dec-10 21:56 UTC. Time now 2017-Dec-11 06:01 UTC.
Position N 38°50' W 076°26'.

Length 32 m; draft 2.8 m.

Type: Tug. MMSI: 367169710.

Date/timePositionNaut miles runAvg speedWind from/ knotsBaromVisibWave heightAir tempDewpointWater temp
2017-Dec-10 21:56N 38°50' W 076°26'6 7.1
2017-Dec-10 21:07N 38°56' W 076°25'1 7.3
2017-Dec-10 21:01N 38°56' W 076°24'4 7.1
2017-Dec-10 20:30N 38°60' W 076°23'4 6.9
2017-Dec-10 19:56N 39°04' W 076°24'3 6.7
2017-Dec-10 19:28N 39°07' W 076°24'3 6.2
2017-Dec-10 19:00N 39°10' W 076°24'15 5.0
2017-Dec-10 15:54N 39°21' W 076°10'2 5.9
2017-Dec-10 15:30N 39°22' W 076°07'1 2.9
2017-Dec-10 15:00N 39°23' W 076°06'4 8.4
2017-Dec-10 14:30N 39°21' W 076°10'4 7.8
2017-Dec-10 14:00N 39°18' W 076°14'4 7.9
2017-Dec-10 13:30N 39°14' W 076°15'4 8.1
2017-Dec-10 13:00N 39°10' W 076°17'4 7.9
2017-Dec-10 12:30N 39°07' W 076°20'4 8.0
2017-Dec-10 12:01N 39°03' W 076°21'4 8.3
2017-Dec-10 11:30N 38°59' W 076°23'4 8.1
2017-Dec-10 10:59N 38°55' W 076°25'4 8.0
2017-Dec-10 10:30N 38°52' W 076°26'2 0.0
2017-Dec-08 17:33N 38°50' W 076°26'1 7.7
2017-Dec-08 17:28N 38°51' W 076°26'7 7.7
2017-Dec-08 16:37N 38°57' W 076°24'2 7.6
2017-Dec-08 16:23N 38°59' W 076°23'25 7.0
2017-Dec-08 12:49N 39°21' W 076°10'2 7.7
2017-Dec-08 12:30N 39°23' W 076°07'4 7.6
2017-Dec-08 12:01N 39°24' W 076°03'3 6.8
2017-Dec-08 11:30N 39°28' W 076°03'3 6.5
2017-Dec-08 11:00N 39°30' W 076°05'3 6.7
2017-Dec-08 10:30N 39°34' W 076°05'1 2.0
2017-Dec-08 10:00N 39°34' W 076°06'3 6.7
2017-Dec-08 09:30N 39°31' W 076°05'3 6.2
2017-Dec-08 09:00N 39°28' W 076°03'3 6.5
2017-Dec-08 08:30N 39°25' W 076°03'3 6.5
2017-Dec-08 08:00N 39°23' W 076°06'4 7.1
2017-Dec-08 07:26N 39°21' W 076°10'3 6.9
2017-Dec-08 07:00N 39°19' W 076°13'3 6.8
2017-Dec-08 06:30N 39°16' W 076°16'10 7.8
2017-Dec-08 05:15N 39°11' W 076°26'2 8.7
2017-Dec-08 05:00N 39°12' W 076°29'4 8.3
2017-Dec-08 04:31N 39°14' W 076°33'3 5.1
2017-Dec-08 04:00N 39°15' W 076°36'0 0.1
2017-Dec-08 03:30N 39°15' W 076°36'1 2.8
2017-Dec-08 03:00N 39°15' W 076°35'3 6.5
2017-Dec-08 02:31N 39°13' W 076°32'3 6.5
2017-Dec-08 02:00N 39°11' W 076°28'3 5.4
2017-Dec-08 01:31N 39°12' W 076°25'15 5.6
2017-Dec-07 22:49N 39°21' W 076°10'2 7.3
2017-Dec-07 22:30N 39°23' W 076°07'3 7.1
2017-Dec-07 22:00N 39°24' W 076°03'3 6.2
2017-Dec-07 21:30N 39°27' W 076°02'3 6.2
2017-Dec-07 21:00N 39°29' W 076°05'3 6.3
2017-Dec-07 20:30N 39°33' W 076°05'2 3.9
2017-Dec-07 20:00N 39°34' W 076°06'0 0.1
2017-Dec-07 17:07N 39°34' W 076°06'0 0.0
2017-Dec-07 16:52N 39°34' W 076°06'0 0.0
2017-Dec-07 16:26N 39°34' W 076°06'0 0.0
2017-Dec-07 15:59N 39°34' W 076°06'0 0.0
2017-Dec-07 15:28N 39°34' W 076°06'0 0.0
2017-Dec-07 14:59N 39°34' W 076°06'0 0.0
2017-Dec-07 14:30N 39°34' W 076°06'0 0.0
2017-Dec-07 13:57N 39°34' W 076°06'0 0.0
2017-Dec-07 13:29N 39°34' W 076°06'0 0.5
2017-Dec-07 12:59N 39°34' W 076°06'3 6.7
2017-Dec-07 12:30N 39°31' W 076°05'4 7.4
2017-Dec-07 12:00N 39°28' W 076°03'4 7.2
2017-Dec-07 11:30N 39°24' W 076°03'4 7.8
2017-Dec-07 10:59N 39°22' W 076°08'3 7.0
2017-Dec-07 10:31N 39°20' W 076°11'4 7.3
2017-Dec-07 10:00N 39°17' W 076°13'4 7.1
2017-Dec-07 09:29N 39°14' W 076°15'6 7.1
2017-Dec-07 08:36N 39°08' W 076°20'2 7.4
2017-Dec-07 08:23N 39°07' W 076°20'3 7.3
2017-Dec-07 07:59N 39°04' W 076°21'5 7.2
2017-Dec-07 07:20N 38°60' W 076°23'2 7.2
2017-Dec-07 07:00N 38°57' W 076°24'4 7.5
2017-Dec-07 06:27N 38°53' W 076°25'  
2017-Dec-04 04:43N 38°50' W 076°26'2 8.1
2017-Dec-04 04:29N 38°52' W 076°25'4 8.3
2017-Dec-04 03:59N 38°56' W 076°24'4 8.5
2017-Dec-04 03:28N 39°00' W 076°23'5 8.0
2017-Dec-04 02:49N 39°05' W 076°21'3 7.4
2017-Dec-04 02:29N 39°07' W 076°20'14 7.2
2017-Dec-04 00:36N 39°20' W 076°12'2 9.7
2017-Dec-04 00:23N 39°21' W 076°10'4 5.6
2017-Dec-03 23:37N 39°23' W 076°05'1 6.0
2017-Dec-03 23:25N 39°24' W 076°04'2 5.2
2017-Dec-03 22:59N 39°25' W 076°02'2 3.7
2017-Dec-03 22:23N 39°28' W 076°03'3 7.8
2017-Dec-03 22:00N 39°30' W 076°05'2 4.1
2017-Dec-03 21:24N 39°32' W 076°05'2 3.9
2017-Dec-03 20:50N 39°34' W 076°06'0 0.0
2017-Dec-03 20:28N 39°34' W 076°06'0 0.2
2017-Dec-03 19:54N 39°34' W 076°06'5 8.6
2017-Dec-03 19:20N 39°30' W 076°05'2 4.4
2017-Dec-03 18:50N 39°28' W 076°03'2 5.4
2017-Dec-03 18:27N 39°26' W 076°02'2 4.3
2017-Dec-03 17:57N 39°24' W 076°03'3 5.9
2017-Dec-03 17:29N 39°23' W 076°06'2 4.7
2017-Dec-03 16:58N 39°22' W 076°09'7 7.9
2017-Dec-03 16:05N 39°16' W 076°14'1 5.0
2017-Dec-03 15:53N 39°15' W 076°14'2 4.9
2017-Dec-03 15:29N 39°13' W 076°15'5 8.6
2017-Dec-03 14:56N 39°09' W 076°19'2 3.7
2017-Dec-03 14:28N 39°08' W 076°20'2 4.9
2017-Dec-03 14:00N 39°06' W 076°21'5 7.5
2017-Dec-03 13:22N 39°01' W 076°22'3 6.3
2017-Dec-03 12:54N 38°58' W 076°23'2 4.0
2017-Dec-03 12:28N 38°57' W 076°24'5 8.0
2017-Dec-03 11:53N 38°52' W 076°25'4 7.4
2017-Dec-03 11:22N 38°48' W 076°27'28 7.2
2017-Dec-03 07:23N 38°20' W 076°20'37 0.8
2017-Dec-01 11:06N 37°57' W 075°44'0 0.1
2017-Dec-01 10:59N 37°57' W 075°44'  
Track history (hours):
 
Tides and Currents Weather Stations Pressure Air Temp Water Temp Dewpoint Dewpoint Depression Visibility Wind Speed Wind Dir Waves Ship Positions

Capt. Ted

Owner: Salisbury Towing Corporation, Richmond, VA. More information available from US FCC via Universal Licensing System and Coast Guard Vessel Documentation Center.

Last reported at 2017-Dec-10 21:56 UTC. Time now 2017-Dec-11 06:01 UTC.
Position N 38°50' W 076°26'.

Length 32 m; draft 2.8 m.

Type: Tug. MMSI: 367169710.

Date/timePositionNaut miles runAvg speedWind from/ knotsBaromVisibWave heightAir tempDewpointWater temp
2017-Dec-10 21:56N 38°50' W 076°26'6 7.1
2017-Dec-10 21:07N 38°56' W 076°25'1 7.3
2017-Dec-10 21:01N 38°56' W 076°24'4 7.1
2017-Dec-10 20:30N 38°60' W 076°23'4 6.9
2017-Dec-10 19:56N 39°04' W 076°24'3 6.7
2017-Dec-10 19:28N 39°07' W 076°24'3 6.2
2017-Dec-10 19:00N 39°10' W 076°24'15 5.0
2017-Dec-10 15:54N 39°21' W 076°10'2 5.9
2017-Dec-10 15:30N 39°22' W 076°07'1 2.9
2017-Dec-10 15:00N 39°23' W 076°06'4 8.4
2017-Dec-10 14:30N 39°21' W 076°10'4 7.8
2017-Dec-10 14:00N 39°18' W 076°14'4 7.9
2017-Dec-10 13:30N 39°14' W 076°15'4 8.1
2017-Dec-10 13:00N 39°10' W 076°17'4 7.9
2017-Dec-10 12:30N 39°07' W 076°20'4 8.0
2017-Dec-10 12:01N 39°03' W 076°21'4 8.3
2017-Dec-10 11:30N 38°59' W 076°23'4 8.1
2017-Dec-10 10:59N 38°55' W 076°25'4 8.0
2017-Dec-10 10:30N 38°52' W 076°26'2 0.0
2017-Dec-08 17:33N 38°50' W 076°26'1 7.7
2017-Dec-08 17:28N 38°51' W 076°26'7 7.7
2017-Dec-08 16:37N 38°57' W 076°24'2 7.6
2017-Dec-08 16:23N 38°59' W 076°23'25 7.0
2017-Dec-08 12:49N 39°21' W 076°10'2 7.7
2017-Dec-08 12:30N 39°23' W 076°07'4 7.6
2017-Dec-08 12:01N 39°24' W 076°03'3 6.8
2017-Dec-08 11:30N 39°28' W 076°03'3 6.5
2017-Dec-08 11:00N 39°30' W 076°05'3 6.7
2017-Dec-08 10:30N 39°34' W 076°05'1 2.0
2017-Dec-08 10:00N 39°34' W 076°06'3 6.7
2017-Dec-08 09:30N 39°31' W 076°05'3 6.2
2017-Dec-08 09:00N 39°28' W 076°03'3 6.5
2017-Dec-08 08:30N 39°25' W 076°03'3 6.5
2017-Dec-08 08:00N 39°23' W 076°06'4 7.1
2017-Dec-08 07:26N 39°21' W 076°10'3 6.9
2017-Dec-08 07:00N 39°19' W 076°13'3 6.8
2017-Dec-08 06:30N 39°16' W 076°16'10 7.8
2017-Dec-08 05:15N 39°11' W 076°26'2 8.7
2017-Dec-08 05:00N 39°12' W 076°29'4 8.3
2017-Dec-08 04:31N 39°14' W 076°33'3 5.1
2017-Dec-08 04:00N 39°15' W 076°36'0 0.1
2017-Dec-08 03:30N 39°15' W 076°36'1 2.8
2017-Dec-08 03:00N 39°15' W 076°35'3 6.5
2017-Dec-08 02:31N 39°13' W 076°32'3 6.5
2017-Dec-08 02:00N 39°11' W 076°28'3 5.4
2017-Dec-08 01:31N 39°12' W 076°25'15 5.6
2017-Dec-07 22:49N 39°21' W 076°10'2 7.3
2017-Dec-07 22:30N 39°23' W 076°07'3 7.1
2017-Dec-07 22:00N 39°24' W 076°03'3 6.2
2017-Dec-07 21:30N 39°27' W 076°02'3 6.2
2017-Dec-07 21:00N 39°29' W 076°05'3 6.3
2017-Dec-07 20:30N 39°33' W 076°05'2 3.9
2017-Dec-07 20:00N 39°34' W 076°06'0 0.1
2017-Dec-07 17:07N 39°34' W 076°06'0 0.0
2017-Dec-07 16:52N 39°34' W 076°06'0 0.0
2017-Dec-07 16:26N 39°34' W 076°06'0 0.0
2017-Dec-07 15:59N 39°34' W 076°06'0 0.0
2017-Dec-07 15:28N 39°34' W 076°06'0 0.0
2017-Dec-07 14:59N 39°34' W 076°06'0 0.0
2017-Dec-07 14:30N 39°34' W 076°06'0 0.0
2017-Dec-07 13:57N 39°34' W 076°06'0 0.0
2017-Dec-07 13:29N 39°34' W 076°06'0 0.5
2017-Dec-07 12:59N 39°34' W 076°06'3 6.7
2017-Dec-07 12:30N 39°31' W 076°05'4 7.4
2017-Dec-07 12:00N 39°28' W 076°03'4 7.2
2017-Dec-07 11:30N 39°24' W 076°03'4 7.8
2017-Dec-07 10:59N 39°22' W 076°08'3 7.0
2017-Dec-07 10:31N 39°20' W 076°11'4 7.3
2017-Dec-07 10:00N 39°17' W 076°13'4 7.1
2017-Dec-07 09:29N 39°14' W 076°15'6 7.1
2017-Dec-07 08:36N 39°08' W 076°20'2 7.4
2017-Dec-07 08:23N 39°07' W 076°20'3 7.3
2017-Dec-07 07:59N 39°04' W 076°21'5 7.2
2017-Dec-07 07:20N 38°60' W 076°23'2 7.2
2017-Dec-07 07:00N 38°57' W 076°24'4 7.5
2017-Dec-07 06:27N 38°53' W 076°25'  
2017-Dec-04 04:43N 38°50' W 076°26'2 8.1
2017-Dec-04 04:29N 38°52' W 076°25'4 8.3
2017-Dec-04 03:59N 38°56' W 076°24'4 8.5
2017-Dec-04 03:28N 39°00' W 076°23'5 8.0
2017-Dec-04 02:49N 39°05' W 076°21'3 7.4
2017-Dec-04 02:29N 39°07' W 076°20'14 7.2
2017-Dec-04 00:36N 39°20' W 076°12'2 9.7
2017-Dec-04 00:23N 39°21' W 076°10'4 5.6
2017-Dec-03 23:37N 39°23' W 076°05'1 6.0
2017-Dec-03 23:25N 39°24' W 076°04'2 5.2
2017-Dec-03 22:59N 39°25' W 076°02'2 3.7
2017-Dec-03 22:23N 39°28' W 076°03'3 7.8
2017-Dec-03 22:00N 39°30' W 076°05'2 4.1
2017-Dec-03 21:24N 39°32' W 076°05'2 3.9
2017-Dec-03 20:50N 39°34' W 076°06'0 0.0
2017-Dec-03 20:28N 39°34' W 076°06'0 0.2
2017-Dec-03 19:54N 39°34' W 076°06'5 8.6
2017-Dec-03 19:20N 39°30' W 076°05'2 4.4
2017-Dec-03 18:50N 39°28' W 076°03'2 5.4
2017-Dec-03 18:27N 39°26' W 076°02'2 4.3
2017-Dec-03 17:57N 39°24' W 076°03'3 5.9
2017-Dec-03 17:29N 39°23' W 076°06'2 4.7
2017-Dec-03 16:58N 39°22' W 076°09'7 7.9
2017-Dec-03 16:05N 39°16' W 076°14'1 5.0
2017-Dec-03 15:53N 39°15' W 076°14'2 4.9
2017-Dec-03 15:29N 39°13' W 076°15'5 8.6
2017-Dec-03 14:56N 39°09' W 076°19'2 3.7
2017-Dec-03 14:28N 39°08' W 076°20'2 4.9
2017-Dec-03 14:00N 39°06' W 076°21'5 7.5
2017-Dec-03 13:22N 39°01' W 076°22'3 6.3
2017-Dec-03 12:54N 38°58' W 076°23'2 4.0
2017-Dec-03 12:28N 38°57' W 076°24'5 8.0
2017-Dec-03 11:53N 38°52' W 076°25'4 7.4
2017-Dec-03 11:22N 38°48' W 076°27'28 7.2
2017-Dec-03 07:23N 38°20' W 076°20'37 0.8
2017-Dec-01 11:06N 37°57' W 075°44'0 0.1
2017-Dec-01 10:59N 37°57' W 075°44'  

Dump ship's entire track history